sensor_id;sensor_type;location;lat;lon;timestamp;P1;P2;P0
73623;PMS5003;61921;53.226;-1.296;2023-05-08T00:00:39;8;8;
73623;PMS5003;61921;53.226;-1.296;2023-05-08T00:03:04;8;7;
73623;PMS5003;61921;53.226;-1.296;2023-05-08T00:05:30;9;9;
73623;PMS5003;61921;53.226;-1.296;2023-05-08T00:07:55;12;11;
73623;PMS5003;61921;53.226;-1.296;2023-05-08T00:10:20;9;9;
73623;PMS5003;61921;53.226;-1.296;2023-05-08T00:12:45;6;6;
73623;PMS5003;61921;53.226;-1.296;2023-05-08T00:15:11;12;8;
73623;PMS5003;61921;53.226;-1.296;2023-05-08T00:17:36;7;7;
73623;PMS5003;61921;53.226;-1.296;2023-05-08T00:20:02;13;9;
73623;PMS5003;61921;53.226;-1.296;2023-05-08T00:22:27;8;8;
73623;PMS5003;61921;53.226;-1.296;2023-05-08T00:24:52;14;10;
73623;PMS5003;61921;53.226;-1.296;2023-05-08T00:27:17;11;8;
73623;PMS5003;61921;53.226;-1.296;2023-05-08T00:29:43;13;10;
73623;PMS5003;61921;53.226;-1.296;2023-05-08T00:32:08;10;9;
73623;PMS5003;61921;53.226;-1.296;2023-05-08T00:34:35;7;7;
73623;PMS5003;61921;53.226;-1.296;2023-05-08T00:36:59;8;8;
73623;PMS5003;61921;53.226;-1.296;2023-05-08T00:39:25;9;7;
73623;PMS5003;61921;53.226;-1.296;2023-05-08T00:41:50;10;7;
73623;PMS5003;61921;53.226;-1.296;2023-05-08T00:44:15;8;8;
73623;PMS5003;61921;53.226;-1.296;2023-05-08T00:46:40;8;7;
73623;PMS5003;61921;53.226;-1.296;2023-05-08T00:49:06;5;5;
73623;PMS5003;61921;53.226;-1.296;2023-05-08T00:51:31;6;6;
73623;PMS5003;61921;53.226;-1.296;2023-05-08T00:53:56;12;9;
73623;PMS5003;61921;53.226;-1.296;2023-05-08T00:56:23;7;6;
73623;PMS5003;61921;53.226;-1.296;2023-05-08T00:58:47;7;6;
73623;PMS5003;61921;53.226;-1.296;2023-05-08T01:01:12;4;4;
73623;PMS5003;61921;53.226;-1.296;2023-05-08T01:03:37;7;6;
73623;PMS5003;61921;53.226;-1.296;2023-05-08T01:06:03;8;8;
73623;PMS5003;61921;53.226;-1.296;2023-05-08T01:08:29;8;8;
73623;PMS5003;61921;53.226;-1.296;2023-05-08T01:11:09;6;6;
73623;PMS5003;61921;53.226;-1.296;2023-05-08T01:13:21;7;7;
73623;PMS5003;61921;53.226;-1.296;2023-05-08T01:15:46;8;8;
73623;PMS5003;61921;53.226;-1.296;2023-05-08T01:18:11;8;8;
73623;PMS5003;61921;53.226;-1.296;2023-05-08T01:20:38;6;6;
73623;PMS5003;61921;53.226;-1.296;2023-05-08T01:23:06;7;7;
73623;PMS5003;61921;53.226;-1.296;2023-05-08T01:28:05;5;5;
73623;PMS5003;61921;53.226;-1.296;2023-05-08T01:30:21;6;5;
73623;PMS5003;61921;53.226;-1.296;2023-05-08T01:32:42;11;9;
73623;PMS5003;61921;53.226;-1.296;2023-05-08T01:35:21;9;6;
73623;PMS5003;61921;53.226;-1.296;2023-05-08T01:37:34;8;8;
73623;PMS5003;61921;53.226;-1.296;2023-05-08T01:40:01;5;5;
73623;PMS5003;61921;53.226;-1.296;2023-05-08T01:42:25;7;5;
73623;PMS5003;61921;53.226;-1.296;2023-05-08T01:44:50;8;8;
73623;PMS5003;61921;53.226;-1.296;2023-05-08T01:47:14;5;5;
73623;PMS5003;61921;53.226;-1.296;2023-05-08T01:49:45;7;7;
73623;PMS5003;61921;53.226;-1.296;2023-05-08T01:52:06;5;5;
73623;PMS5003;61921;53.226;-1.296;2023-05-08T01:54:32;5;5;
73623;PMS5003;61921;53.226;-1.296;2023-05-08T01:56:56;8;6;
73623;PMS5003;61921;53.226;-1.296;2023-05-08T01:59:20;6;6;
73623;PMS5003;61921;53.226;-1.296;2023-05-08T02:01:46;6;6;
73623;PMS5003;61921;53.226;-1.296;2023-05-08T02:04:11;6;6;
73623;PMS5003;61921;53.226;-1.296;2023-05-08T02:06:36;6;6;
73623;PMS5003;61921;53.226;-1.296;2023-05-08T02:09:01;6;6;
73623;PMS5003;61921;53.226;-1.296;2023-05-08T02:11:27;8;6;
73623;PMS5003;61921;53.226;-1.296;2023-05-08T02:13:52;6;5;
73623;PMS5003;61921;53.226;-1.296;2023-05-08T02:16:18;7;7;
73623;PMS5003;61921;53.226;-1.296;2023-05-08T02:18:46;9;8;
73623;PMS5003;61921;53.226;-1.296;2023-05-08T02:21:09;7;6;
73623;PMS5003;61921;53.226;-1.296;2023-05-08T02:23:34;5;5;
73623;PMS5003;61921;53.226;-1.296;2023-05-08T02:25:59;9;8;
73623;PMS5003;61921;53.226;-1.296;2023-05-08T02:28:25;7;7;
73623;PMS5003;61921;53.226;-1.296;2023-05-08T02:30:50;8;8;
73623;PMS5003;61921;53.226;-1.296;2023-05-08T02:33:15;10;9;
73623;PMS5003;61921;53.226;-1.296;2023-05-08T02:35:42;8;8;
73623;PMS5003;61921;53.226;-1.296;2023-05-08T02:38:06;11;9;
73623;PMS5003;61921;53.226;-1.296;2023-05-08T02:40:32;10;10;
73623;PMS5003;61921;53.226;-1.296;2023-05-08T02:42:57;12;9;
73623;PMS5003;61921;53.226;-1.296;2023-05-08T02:45:24;10;10;
73623;PMS5003;61921;53.226;-1.296;2023-05-08T02:47:50;14;10;
73623;PMS5003;61921;53.226;-1.296;2023-05-08T02:50:15;12;9;
73623;PMS5003;61921;53.226;-1.296;2023-05-08T02:52:41;9;7;
73623;PMS5003;61921;53.226;-1.296;2023-05-08T02:55:07;12;11;
73623;PMS5003;61921;53.226;-1.296;2023-05-08T02:57:32;10;10;
73623;PMS5003;61921;53.226;-1.296;2023-05-08T02:59:56;10;10;
73623;PMS5003;61921;53.226;-1.296;2023-05-08T03:02:21;13;11;
73623;PMS5003;61921;53.226;-1.296;2023-05-08T03:04:48;10;9;
73623;PMS5003;61921;53.226;-1.296;2023-05-08T03:07:12;11;11;
73623;PMS5003;61921;53.226;-1.296;2023-05-08T03:09:38;11;11;
73623;PMS5003;61921;53.226;-1.296;2023-05-08T03:12:05;12;10;
73623;PMS5003;61921;53.226;-1.296;2023-05-08T03:14:28;15;13;
73623;PMS5003;61921;53.226;-1.296;2023-05-08T03:16:53;16;12;
73623;PMS5003;61921;53.226;-1.296;2023-05-08T03:19:20;11;10;
73623;PMS5003;61921;53.226;-1.296;2023-05-08T03:21:44;13;12;
73623;PMS5003;61921;53.226;-1.296;2023-05-08T03:24:09;10;10;
73623;PMS5003;61921;53.226;-1.296;2023-05-08T03:26:35;18;12;
73623;PMS5003;61921;53.226;-1.296;2023-05-08T03:29:00;13;13;
73623;PMS5003;61921;53.226;-1.296;2023-05-08T03:31:25;12;12;
73623;PMS5003;61921;53.226;-1.296;2023-05-08T03:33:51;15;13;
73623;PMS5003;61921;53.226;-1.296;2023-05-08T03:36:16;14;11;
73623;PMS5003;61921;53.226;-1.296;2023-05-08T03:38:41;14;13;
73623;PMS5003;61921;53.226;-1.296;2023-05-08T03:41:06;11;11;
73623;PMS5003;61921;53.226;-1.296;2023-05-08T03:43:32;16;12;
73623;PMS5003;61921;53.226;-1.296;2023-05-08T03:45:57;14;14;
73623;PMS5003;61921;53.226;-1.296;2023-05-08T03:48:22;10;10;
73623;PMS5003;61921;53.226;-1.296;2023-05-08T03:50:47;11;11;
73623;PMS5003;61921;53.226;-1.296;2023-05-08T03:53:13;13;12;
73623;PMS5003;61921;53.226;-1.296;2023-05-08T03:55:38;11;11;
73623;PMS5003;61921;53.226;-1.296;2023-05-08T03:58:06;13;13;
73623;PMS5003;61921;53.226;-1.296;2023-05-08T04:00:31;13;12;
73623;PMS5003;61921;53.226;-1.296;2023-05-08T04:02:55;14;11;
73623;PMS5003;61921;53.226;-1.296;2023-05-08T04:05:20;15;15;
73623;PMS5003;61921;53.226;-1.296;2023-05-08T04:07:46;13;12;
73623;PMS5003;61921;53.226;-1.296;2023-05-08T04:10:10;18;14;
73623;PMS5003;61921;53.226;-1.296;2023-05-08T04:12:37;13;13;
73623;PMS5003;61921;53.226;-1.296;2023-05-08T04:15:02;14;14;
73623;PMS5003;61921;53.226;-1.296;2023-05-08T04:17:27;17;15;
73623;PMS5003;61921;53.226;-1.296;2023-05-08T04:19:53;10;10;
73623;PMS5003;61921;53.226;-1.296;2023-05-08T04:22:16;19;18;
73623;PMS5003;61921;53.226;-1.296;2023-05-08T04:24:42;14;12;
73623;PMS5003;61921;53.226;-1.296;2023-05-08T04:27:07;11;11;
73623;PMS5003;61921;53.226;-1.296;2023-05-08T04:29:32;13;12;
73623;PMS5003;61921;53.226;-1.296;2023-05-08T04:31:58;11;11;
73623;PMS5003;61921;53.226;-1.296;2023-05-08T04:34:23;18;14;
73623;PMS5003;61921;53.226;-1.296;2023-05-08T04:36:48;13;12;
73623;PMS5003;61921;53.226;-1.296;2023-05-08T04:39:14;11;9;
73623;PMS5003;61921;53.226;-1.296;2023-05-08T04:41:39;13;12;
73623;PMS5003;61921;53.226;-1.296;2023-05-08T04:44:04;15;15;
73623;PMS5003;61921;53.226;-1.296;2023-05-08T04:46:30;11;11;
73623;PMS5003;61921;53.226;-1.296;2023-05-08T04:48:55;16;14;
73623;PMS5003;61921;53.226;-1.296;2023-05-08T04:51:20;17;16;
73623;PMS5003;61921;53.226;-1.296;2023-05-08T04:53:46;17;16;
73623;PMS5003;61921;53.226;-1.296;2023-05-08T04:56:11;17;14;
73623;PMS5003;61921;53.226;-1.296;2023-05-08T04:58:36;14;14;
73623;PMS5003;61921;53.226;-1.296;2023-05-08T05:01:01;16;13;
73623;PMS5003;61921;53.226;-1.296;2023-05-08T05:03:26;17;15;
73623;PMS5003;61921;53.226;-1.296;2023-05-08T05:05:56;18;13;
73623;PMS5003;61921;53.226;-1.296;2023-05-08T05:08:17;20;19;
73623;PMS5003;61921;53.226;-1.296;2023-05-08T05:10:43;19;15;
73623;PMS5003;61921;53.226;-1.296;2023-05-08T05:13:08;16;12;
73623;PMS5003;61921;53.226;-1.296;2023-05-08T05:15:33;14;14;
73623;PMS5003;61921;53.226;-1.296;2023-05-08T05:17:59;16;16;
73623;PMS5003;61921;53.226;-1.296;2023-05-08T05:20:24;15;15;
73623;PMS5003;61921;53.226;-1.296;2023-05-08T05:22:50;16;13;
73623;PMS5003;61921;53.226;-1.296;2023-05-08T05:25:15;16;14;
73623;PMS5003;61921;53.226;-1.296;2023-05-08T05:27:41;16;16;
73623;PMS5003;61921;53.226;-1.296;2023-05-08T05:30:07;16;14;
73623;PMS5003;61921;53.226;-1.296;2023-05-08T05:32:32;15;14;
73623;PMS5003;61921;53.226;-1.296;2023-05-08T05:34:57;16;14;
73623;PMS5003;61921;53.226;-1.296;2023-05-08T05:37:23;14;14;
73623;PMS5003;61921;53.226;-1.296;2023-05-08T05:39:48;11;10;
73623;PMS5003;61921;53.226;-1.296;2023-05-08T05:42:13;14;13;
73623;PMS5003;61921;53.226;-1.296;2023-05-08T05:44:38;10;10;
73623;PMS5003;61921;53.226;-1.296;2023-05-08T05:47:04;13;11;
73623;PMS5003;61921;53.226;-1.296;2023-05-08T05:49:30;11;11;
73623;PMS5003;61921;53.226;-1.296;2023-05-08T05:51:55;15;14;
73623;PMS5003;61921;53.226;-1.296;2023-05-08T05:54:21;13;12;
73623;PMS5003;61921;53.226;-1.296;2023-05-08T05:56:46;14;13;
73623;PMS5003;61921;53.226;-1.296;2023-05-08T05:59:12;12;12;
73623;PMS5003;61921;53.226;-1.296;2023-05-08T06:01:38;10;10;
73623;PMS5003;61921;53.226;-1.296;2023-05-08T06:04:04;9;9;
73623;PMS5003;61921;53.226;-1.296;2023-05-08T06:06:29;11;10;
73623;PMS5003;61921;53.226;-1.296;2023-05-08T06:08:55;13;11;
73623;PMS5003;61921;53.226;-1.296;2023-05-08T06:11:20;9;9;
73623;PMS5003;61921;53.226;-1.296;2023-05-08T06:13:45;11;10;
73623;PMS5003;61921;53.226;-1.296;2023-05-08T06:16:11;14;9;
73623;PMS5003;61921;53.226;-1.296;2023-05-08T06:18:37;10;10;
73623;PMS5003;61921;53.226;-1.296;2023-05-08T06:21:02;10;7;
73623;PMS5003;61921;53.226;-1.296;2023-05-08T06:23:27;8;7;
73623;PMS5003;61921;53.226;-1.296;2023-05-08T06:25:53;9;6;
73623;PMS5003;61921;53.226;-1.296;2023-05-08T06:28:18;10;10;
73623;PMS5003;61921;53.226;-1.296;2023-05-08T06:30:44;11;10;
73623;PMS5003;61921;53.226;-1.296;2023-05-08T06:33:09;10;9;
73623;PMS5003;61921;53.226;-1.296;2023-05-08T06:35:35;9;9;
73623;PMS5003;61921;53.226;-1.296;2023-05-08T06:38:00;8;8;
73623;PMS5003;61921;53.226;-1.296;2023-05-08T06:40:25;11;9;
73623;PMS5003;61921;53.226;-1.296;2023-05-08T06:42:50;8;8;
73623;PMS5003;61921;53.226;-1.296;2023-05-08T06:45:16;7;6;
73623;PMS5003;61921;53.226;-1.296;2023-05-08T06:47:41;5;5;
73623;PMS5003;61921;53.226;-1.296;2023-05-08T06:50:07;8;7;
73623;PMS5003;61921;53.226;-1.296;2023-05-08T06:52:32;8;8;
73623;PMS5003;61921;53.226;-1.296;2023-05-08T06:54:57;8;6;
73623;PMS5003;61921;53.226;-1.296;2023-05-08T06:57:23;7;6;
73623;PMS5003;61921;53.226;-1.296;2023-05-08T06:59:48;7;7;
73623;PMS5003;61921;53.226;-1.296;2023-05-08T07:02:13;6;6;
73623;PMS5003;61921;53.226;-1.296;2023-05-08T07:04:38;7;7;
73623;PMS5003;61921;53.226;-1.296;2023-05-08T07:07:04;4;4;
73623;PMS5003;61921;53.226;-1.296;2023-05-08T07:09:29;9;5;
73623;PMS5003;61921;53.226;-1.296;2023-05-08T07:11:54;7;7;
73623;PMS5003;61921;53.226;-1.296;2023-05-08T07:14:20;10;8;
73623;PMS5003;61921;53.226;-1.296;2023-05-08T07:16:45;7;5;
73623;PMS5003;61921;53.226;-1.296;2023-05-08T07:19:10;6;6;
73623;PMS5003;61921;53.226;-1.296;2023-05-08T07:21:35;7;6;
73623;PMS5003;61921;53.226;-1.296;2023-05-08T07:24:01;7;6;
73623;PMS5003;61921;53.226;-1.296;2023-05-08T07:26:26;7;6;
73623;PMS5003;61921;53.226;-1.296;2023-05-08T07:28:51;4;4;
73623;PMS5003;61921;53.226;-1.296;2023-05-08T07:31:17;7;7;
73623;PMS5003;61921;53.226;-1.296;2023-05-08T07:33:42;10;7;
73623;PMS5003;61921;53.226;-1.296;2023-05-08T07:36:07;7;5;
73623;PMS5003;61921;53.226;-1.296;2023-05-08T07:38:33;8;6;
73623;PMS5003;61921;53.226;-1.296;2023-05-08T07:40:58;5;5;
73623;PMS5003;61921;53.226;-1.296;2023-05-08T07:43:23;11;6;
73623;PMS5003;61921;53.226;-1.296;2023-05-08T07:45:48;8;7;
73623;PMS5003;61921;53.226;-1.296;2023-05-08T07:48:14;8;7;
73623;PMS5003;61921;53.226;-1.296;2023-05-08T07:50:39;7;7;
73623;PMS5003;61921;53.226;-1.296;2023-05-08T07:53:04;7;6;
73623;PMS5003;61921;53.226;-1.296;2023-05-08T07:55:30;8;8;
73623;PMS5003;61921;53.226;-1.296;2023-05-08T07:57:55;5;5;
73623;PMS5003;61921;53.226;-1.296;2023-05-08T08:00:20;4;4;
73623;PMS5003;61921;53.226;-1.296;2023-05-08T08:02:46;5;5;
73623;PMS5003;61921;53.226;-1.296;2023-05-08T08:05:11;6;6;
73623;PMS5003;61921;53.226;-1.296;2023-05-08T08:07:36;5;3;
73623;PMS5003;61921;53.226;-1.296;2023-05-08T08:10:02;4;4;
73623;PMS5003;61921;53.226;-1.296;2023-05-08T08:12:27;6;5;
73623;PMS5003;61921;53.226;-1.296;2023-05-08T08:14:52;10;6;
73623;PMS5003;61921;53.226;-1.296;2023-05-08T08:17:18;9;8;
73623;PMS5003;61921;53.226;-1.296;2023-05-08T08:19:43;7;6;
73623;PMS5003;61921;53.226;-1.296;2023-05-08T08:22:08;3;3;
73623;PMS5003;61921;53.226;-1.296;2023-05-08T08:24:34;6;5;
73623;PMS5003;61921;53.226;-1.296;2023-05-08T08:26:59;6;6;
73623;PMS5003;61921;53.226;-1.296;2023-05-08T08:29:24;7;7;
73623;PMS5003;61921;53.226;-1.296;2023-05-08T08:31:50;6;4;
73623;PMS5003;61921;53.226;-1.296;2023-05-08T08:34:15;7;6;
73623;PMS5003;61921;53.226;-1.296;2023-05-08T08:36:40;5;5;
73623;PMS5003;61921;53.226;-1.296;2023-05-08T08:39:05;7;6;
73623;PMS5003;61921;53.226;-1.296;2023-05-08T08:41:31;4;4;
73623;PMS5003;61921;53.226;-1.296;2023-05-08T08:43:56;5;5;
73623;PMS5003;61921;53.226;-1.296;2023-05-08T08:46:23;7;6;
73623;PMS5003;61921;53.226;-1.296;2023-05-08T08:48:47;5;5;
73623;PMS5003;61921;53.226;-1.296;2023-05-08T08:51:13;6;6;
73623;PMS5003;61921;53.226;-1.296;2023-05-08T08:53:40;9;7;
73623;PMS5003;61921;53.226;-1.296;2023-05-08T08:56:03;9;6;
73623;PMS5003;61921;53.226;-1.296;2023-05-08T08:58:30;11;11;
73623;PMS5003;61921;53.226;-1.296;2023-05-08T09:00:54;7;7;
73623;PMS5003;61921;53.226;-1.296;2023-05-08T09:03:19;11;11;
73623;PMS5003;61921;53.226;-1.296;2023-05-08T09:05:44;8;8;
73623;PMS5003;61921;53.226;-1.296;2023-05-08T09:08:09;5;4;
73623;PMS5003;61921;53.226;-1.296;2023-05-08T09:10:35;7;6;
73623;PMS5003;61921;53.226;-1.296;2023-05-08T09:13:00;4;4;
73623;PMS5003;61921;53.226;-1.296;2023-05-08T09:15:25;10;6;
73623;PMS5003;61921;53.226;-1.296;2023-05-08T09:17:51;8;6;
73623;PMS5003;61921;53.226;-1.296;2023-05-08T09:20:16;9;8;
73623;PMS5003;61921;53.226;-1.296;2023-05-08T09:22:42;6;5;
73623;PMS5003;61921;53.226;-1.296;2023-05-08T09:25:08;11;10;
73623;PMS5003;61921;53.226;-1.296;2023-05-08T09:27:32;7;7;
73623;PMS5003;61921;53.226;-1.296;2023-05-08T09:29:59;8;8;
73623;PMS5003;61921;53.226;-1.296;2023-05-08T09:32:24;9;8;
73623;PMS5003;61921;53.226;-1.296;2023-05-08T09:34:51;8;7;
73623;PMS5003;61921;53.226;-1.296;2023-05-08T09:37:14;6;5;
73623;PMS5003;61921;53.226;-1.296;2023-05-08T09:39:40;9;9;
73623;PMS5003;61921;53.226;-1.296;2023-05-08T09:42:05;11;10;
73623;PMS5003;61921;53.226;-1.296;2023-05-08T09:49:21;8;6;
73623;PMS5003;61921;53.226;-1.296;2023-05-08T09:51:50;7;6;
73623;PMS5003;61921;53.226;-1.296;2023-05-08T09:54:16;8;8;
73623;PMS5003;61921;53.226;-1.296;2023-05-08T09:56:37;9;9;
73623;PMS5003;61921;53.226;-1.296;2023-05-08T09:59:03;10;9;
73623;PMS5003;61921;53.226;-1.296;2023-05-08T10:01:28;9;8;
73623;PMS5003;61921;53.226;-1.296;2023-05-08T10:03:53;10;10;
73623;PMS5003;61921;53.226;-1.296;2023-05-08T10:06:19;10;9;
73623;PMS5003;61921;53.226;-1.296;2023-05-08T10:08:44;9;8;
73623;PMS5003;61921;53.226;-1.296;2023-05-08T10:11:13;6;6;
73623;PMS5003;61921;53.226;-1.296;2023-05-08T10:13:35;7;5;
73623;PMS5003;61921;53.226;-1.296;2023-05-08T10:16:00;7;7;
73623;PMS5003;61921;53.226;-1.296;2023-05-08T10:18:26;7;6;
73623;PMS5003;61921;53.226;-1.296;2023-05-08T10:20:51;5;5;
73623;PMS5003;61921;53.226;-1.296;2023-05-08T10:23:16;9;8;
73623;PMS5003;61921;53.226;-1.296;2023-05-08T10:25:42;6;6;
73623;PMS5003;61921;53.226;-1.296;2023-05-08T10:28:09;7;7;
73623;PMS5003;61921;53.226;-1.296;2023-05-08T10:30:32;6;6;
73623;PMS5003;61921;53.226;-1.296;2023-05-08T10:32:57;9;8;
73623;PMS5003;61921;53.226;-1.296;2023-05-08T10:35:23;8;7;
73623;PMS5003;61921;53.226;-1.296;2023-05-08T10:37:48;8;7;
73623;PMS5003;61921;53.226;-1.296;2023-05-08T10:40:13;4;4;
73623;PMS5003;61921;53.226;-1.296;2023-05-08T10:42:39;5;5;
73623;PMS5003;61921;53.226;-1.296;2023-05-08T10:45:04;6;6;
73623;PMS5003;61921;53.226;-1.296;2023-05-08T10:47:32;7;7;
73623;PMS5003;61921;53.226;-1.296;2023-05-08T10:49:56;6;5;
73623;PMS5003;61921;53.226;-1.296;2023-05-08T10:52:22;7;5;
73623;PMS5003;61921;53.226;-1.296;2023-05-08T10:54:55;4;4;
73623;PMS5003;61921;53.226;-1.296;2023-05-08T10:57:10;6;6;
73623;PMS5003;61921;53.226;-1.296;2023-05-08T10:59:36;4;4;
73623;PMS5003;61921;53.226;-1.296;2023-05-08T11:02:03;5;5;
73623;PMS5003;61921;53.226;-1.296;2023-05-08T11:04:27;4;4;
73623;PMS5003;61921;53.226;-1.296;2023-05-08T11:06:51;7;7;
73623;PMS5003;61921;53.226;-1.296;2023-05-08T11:09:19;7;7;
73623;PMS5003;61921;53.226;-1.296;2023-05-08T11:11:42;7;7;
73623;PMS5003;61921;53.226;-1.296;2023-05-08T11:14:09;8;6;
73623;PMS5003;61921;53.226;-1.296;2023-05-08T11:21:23;7;6;
73623;PMS5003;61921;53.226;-1.296;2023-05-08T11:26:14;6;6;
73623;PMS5003;61921;53.226;-1.296;2023-05-08T11:28:40;6;6;
73623;PMS5003;61921;53.226;-1.296;2023-05-08T11:31:06;11;9;
73623;PMS5003;61921;53.226;-1.296;2023-05-08T11:33:31;6;6;
73623;PMS5003;61921;53.226;-1.296;2023-05-08T11:35:56;7;7;
73623;PMS5003;61921;53.226;-1.296;2023-05-08T11:38:22;8;7;
73623;PMS5003;61921;53.226;-1.296;2023-05-08T11:40:47;7;6;
73623;PMS5003;61921;53.226;-1.296;2023-05-08T11:45:37;7;7;
73623;PMS5003;61921;53.226;-1.296;2023-05-08T11:48:02;13;13;
73623;PMS5003;61921;53.226;-1.296;2023-05-08T11:50:27;22;21;
73623;PMS5003;61921;53.226;-1.296;2023-05-08T11:52:53;9;8;
73623;PMS5003;61921;53.226;-1.296;2023-05-08T11:55:18;6;6;
73623;PMS5003;61921;53.226;-1.296;2023-05-08T11:57:43;29;28;
73623;PMS5003;61921;53.226;-1.296;2023-05-08T12:00:09;10;8;
73623;PMS5003;61921;53.226;-1.296;2023-05-08T12:02:35;8;8;
73623;PMS5003;61921;53.226;-1.296;2023-05-08T12:04:59;7;7;
73623;PMS5003;61921;53.226;-1.296;2023-05-08T12:07:25;9;8;
73623;PMS5003;61921;53.226;-1.296;2023-05-08T12:09:50;10;10;
73623;PMS5003;61921;53.226;-1.296;2023-05-08T12:12:15;10;10;
73623;PMS5003;61921;53.226;-1.296;2023-05-08T12:14:40;13;10;
73623;PMS5003;61921;53.226;-1.296;2023-05-08T12:17:06;10;9;
73623;PMS5003;61921;53.226;-1.296;2023-05-08T12:19:31;9;8;
73623;PMS5003;61921;53.226;-1.296;2023-05-08T12:21:56;10;10;
73623;PMS5003;61921;53.226;-1.296;2023-05-08T12:24:21;11;11;
73623;PMS5003;61921;53.226;-1.296;2023-05-08T12:26:47;11;11;
73623;PMS5003;61921;53.226;-1.296;2023-05-08T12:29:12;13;10;
73623;PMS5003;61921;53.226;-1.296;2023-05-08T12:31:37;9;9;
73623;PMS5003;61921;53.226;-1.296;2023-05-08T12:34:03;18;17;
73623;PMS5003;61921;53.226;-1.296;2023-05-08T12:36:32;24;19;
73623;PMS5003;61921;53.226;-1.296;2023-05-08T12:41:22;22;19;
73623;PMS5003;61921;53.226;-1.296;2023-05-08T12:43:45;11;11;
73623;PMS5003;61921;53.226;-1.296;2023-05-08T12:46:12;12;12;
73623;PMS5003;61921;53.226;-1.296;2023-05-08T12:48:36;17;17;
73623;PMS5003;61921;53.226;-1.296;2023-05-08T12:51:01;32;31;
73623;PMS5003;61921;53.226;-1.296;2023-05-08T12:53:28;17;17;
73623;PMS5003;61921;53.226;-1.296;2023-05-08T12:55:52;9;9;
73623;PMS5003;61921;53.226;-1.296;2023-05-08T12:58:17;8;8;
73623;PMS5003;61921;53.226;-1.296;2023-05-08T13:00:43;13;13;
73623;PMS5003;61921;53.226;-1.296;2023-05-08T13:03:08;8;8;
73623;PMS5003;61921;53.226;-1.296;2023-05-08T13:05:33;9;9;
73623;PMS5003;61921;53.226;-1.296;2023-05-08T13:07:58;8;8;
73623;PMS5003;61921;53.226;-1.296;2023-05-08T13:10:23;10;10;
73623;PMS5003;61921;53.226;-1.296;2023-05-08T13:12:48;11;11;
73623;PMS5003;61921;53.226;-1.296;2023-05-08T13:15:13;14;14;
73623;PMS5003;61921;53.226;-1.296;2023-05-08T13:17:39;10;8;
73623;PMS5003;61921;53.226;-1.296;2023-05-08T13:20:04;13;13;
73623;PMS5003;61921;53.226;-1.296;2023-05-08T13:22:29;15;15;
73623;PMS5003;61921;53.226;-1.296;2023-05-08T13:24:55;13;13;
73623;PMS5003;61921;53.226;-1.296;2023-05-08T13:27:20;15;14;
73623;PMS5003;61921;53.226;-1.296;2023-05-08T13:29:45;13;13;
73623;PMS5003;61921;53.226;-1.296;2023-05-08T13:32:10;17;16;
73623;PMS5003;61921;53.226;-1.296;2023-05-08T13:34:36;15;14;
73623;PMS5003;61921;53.226;-1.296;2023-05-08T13:37:02;21;19;
73623;PMS5003;61921;53.226;-1.296;2023-05-08T13:39:27;12;12;
73623;PMS5003;61921;53.226;-1.296;2023-05-08T13:41:53;14;14;
73623;PMS5003;61921;53.226;-1.296;2023-05-08T13:44:19;13;12;
73623;PMS5003;61921;53.226;-1.296;2023-05-08T13:46:44;10;10;
73623;PMS5003;61921;53.226;-1.296;2023-05-08T13:49:10;22;21;
73623;PMS5003;61921;53.226;-1.296;2023-05-08T13:51:36;13;13;
73623;PMS5003;61921;53.226;-1.296;2023-05-08T13:54:02;20;19;
73623;PMS5003;61921;53.226;-1.296;2023-05-08T13:56:28;16;16;
73623;PMS5003;61921;53.226;-1.296;2023-05-08T13:58:53;17;16;
73623;PMS5003;61921;53.226;-1.296;2023-05-08T14:01:19;25;23;
73623;PMS5003;61921;53.226;-1.296;2023-05-08T14:03:44;18;17;
73623;PMS5003;61921;53.226;-1.296;2023-05-08T14:06:10;14;14;
73623;PMS5003;61921;53.226;-1.296;2023-05-08T14:08:36;28;27;
73623;PMS5003;61921;53.226;-1.296;2023-05-08T14:11:01;21;20;
73623;PMS5003;61921;53.226;-1.296;2023-05-08T14:13:27;22;21;
73623;PMS5003;61921;53.226;-1.296;2023-05-08T14:15:52;15;15;
73623;PMS5003;61921;53.226;-1.296;2023-05-08T14:18:18;19;19;
73623;PMS5003;61921;53.226;-1.296;2023-05-08T14:20:43;18;17;
73623;PMS5003;61921;53.226;-1.296;2023-05-08T14:23:09;24;24;
73623;PMS5003;61921;53.226;-1.296;2023-05-08T14:25:34;10;10;
73623;PMS5003;61921;53.226;-1.296;2023-05-08T14:28:00;7;7;
73623;PMS5003;61921;53.226;-1.296;2023-05-08T14:30:25;11;9;
73623;PMS5003;61921;53.226;-1.296;2023-05-08T14:32:50;7;7;
73623;PMS5003;61921;53.226;-1.296;2023-05-08T14:35:16;6;5;
73623;PMS5003;61921;53.226;-1.296;2023-05-08T14:37:41;7;7;
73623;PMS5003;61921;53.226;-1.296;2023-05-08T14:40:07;8;8;
73623;PMS5003;61921;53.226;-1.296;2023-05-08T14:42:32;7;7;
73623;PMS5003;61921;53.226;-1.296;2023-05-08T14:44:57;7;7;
73623;PMS5003;61921;53.226;-1.296;2023-05-08T14:47:22;9;8;
73623;PMS5003;61921;53.226;-1.296;2023-05-08T14:49:47;8;8;
73623;PMS5003;61921;53.226;-1.296;2023-05-08T14:52:13;8;6;
73623;PMS5003;61921;53.226;-1.296;2023-05-08T14:54:38;12;11;
73623;PMS5003;61921;53.226;-1.296;2023-05-08T14:57:03;12;10;
73623;PMS5003;61921;53.226;-1.296;2023-05-08T14:59:28;11;11;
73623;PMS5003;61921;53.226;-1.296;2023-05-08T15:01:53;13;13;
73623;PMS5003;61921;53.226;-1.296;2023-05-08T15:04:19;14;14;
73623;PMS5003;61921;53.226;-1.296;2023-05-08T15:06:45;12;12;
73623;PMS5003;61921;53.226;-1.296;2023-05-08T15:09:10;14;14;
73623;PMS5003;61921;53.226;-1.296;2023-05-08T15:11:35;14;13;
73623;PMS5003;61921;53.226;-1.296;2023-05-08T15:14:00;11;11;
73623;PMS5003;61921;53.226;-1.296;2023-05-08T15:16:25;10;10;
73623;PMS5003;61921;53.226;-1.296;2023-05-08T15:18:51;9;9;
73623;PMS5003;61921;53.226;-1.296;2023-05-08T15:21:16;11;11;
73623;PMS5003;61921;53.226;-1.296;2023-05-08T15:23:41;9;9;
73623;PMS5003;61921;53.226;-1.296;2023-05-08T15:26:06;12;12;
73623;PMS5003;61921;53.226;-1.296;2023-05-08T15:28:31;9;9;
73623;PMS5003;61921;53.226;-1.296;2023-05-08T15:30:57;9;9;
73623;PMS5003;61921;53.226;-1.296;2023-05-08T15:33:22;10;10;
73623;PMS5003;61921;53.226;-1.296;2023-05-08T15:35:47;10;10;
73623;PMS5003;61921;53.226;-1.296;2023-05-08T15:38:12;10;10;
73623;PMS5003;61921;53.226;-1.296;2023-05-08T15:40:38;9;9;
73623;PMS5003;61921;53.226;-1.296;2023-05-08T15:43:03;12;11;
73623;PMS5003;61921;53.226;-1.296;2023-05-08T15:45:28;16;16;
73623;PMS5003;61921;53.226;-1.296;2023-05-08T15:47:53;18;18;
73623;PMS5003;61921;53.226;-1.296;2023-05-08T15:50:19;26;24;
73623;PMS5003;61921;53.226;-1.296;2023-05-08T15:52:45;29;26;
73623;PMS5003;61921;53.226;-1.296;2023-05-08T15:55:11;15;14;
73623;PMS5003;61921;53.226;-1.296;2023-05-08T15:57:36;13;13;
73623;PMS5003;61921;53.226;-1.296;2023-05-08T16:00:01;15;15;
73623;PMS5003;61921;53.226;-1.296;2023-05-08T16:02:26;10;10;
73623;PMS5003;61921;53.226;-1.296;2023-05-08T16:04:51;18;17;
73623;PMS5003;61921;53.226;-1.296;2023-05-08T16:07:17;27;27;
73623;PMS5003;61921;53.226;-1.296;2023-05-08T16:09:42;10;10;
73623;PMS5003;61921;53.226;-1.296;2023-05-08T16:12:08;12;12;
73623;PMS5003;61921;53.226;-1.296;2023-05-08T16:14:33;11;11;
73623;PMS5003;61921;53.226;-1.296;2023-05-08T16:16:59;13;11;
73623;PMS5003;61921;53.226;-1.296;2023-05-08T16:19:24;17;17;
73623;PMS5003;61921;53.226;-1.296;2023-05-08T16:21:50;10;10;
73623;PMS5003;61921;53.226;-1.296;2023-05-08T16:24:15;25;23;